This is the latest recevied weather packets stored in our database for station/object KC4JIR. If no packets are shown the sender has not sent any weather packets the latest 10 day(s).
| Time | Temp. | Humidity | Pressure | Rain* | Wind** | Luminosity | Snow |
|---|---|---|---|---|---|---|---|
| 1778046308 | 16.67° C | 85% | 1012.2 hPa | 0 mm | - | 0 W/m² | - |
| 1778046003 | 16.67° C | 83% | 1012.4 hPa | 0 mm | - | 0 W/m² | - |
| 1778045702 | 16.67° C | 83% | 1012.4 hPa | 0 mm | - | 0 W/m² | - |
| 1778045400 | 16.67° C | 83% | 1012.4 hPa | 0 mm | - | 0 W/m² | - |
| 1778045098 | 16.67° C | 84% | 1012.6 hPa | 0 mm | - | 0 W/m² | - |
| 1778044795 | 16.67° C | 83% | 1012.4 hPa | 0 mm | - | 0 W/m² | - |
| 1778044492 | 16.67° C | 83% | 1012.3 hPa | 0 mm | - | 0 W/m² | - |
| 1778044189 | 16.67° C | 83% | 1012.2 hPa | 0 mm | - | 0 W/m² | - |
| 1778043887 | 16.67° C | 82% | 1012 hPa | 0 mm | - | 0 W/m² | - |
| 1778043584 | 17.22° C | 80% | 1012 hPa | 0 mm | - | 0 W/m² | - |
| 1778043280 | 17.22° C | 80% | 1012 hPa | 0 mm | - | 0 W/m² | - |
| 1778041767 | 17.22° C | 80% | 1012.3 hPa | 0 mm | - | 0 W/m² | - |
| 1778041466 | 17.22° C | 80% | 1012.6 hPa | 0 mm | - | 0 W/m² | - |
| 1778041164 | 17.22° C | 80% | 1012.5 hPa | 0 mm | - | 0 W/m² | - |
| 1778040861 | 17.22° C | 79% | 1012.5 hPa | 0 mm | - | 0 W/m² | - |
| 1778039951 | 17.78° C | 77% | 1012.3 hPa | 0 mm | - | 0 W/m² | - |
| 1778039649 | 17.78° C | 77% | 1012.3 hPa | 0 mm | - | 0 W/m² | - |
| 1778039346 | 17.78° C | 77% | 1012 hPa | 0 mm | - | 0 W/m² | - |
| 1778036317 | 18.89° C | 71% | 1012.6 hPa | 0 mm | - | 0 W/m² | - |
| 1778036013 | 18.89° C | 71% | 1012.8 hPa | 0 mm | - | 0 W/m² | - |
| 1778035711 | 18.89° C | 71% | 1012.9 hPa | 0 mm | - | 0 W/m² | - |
| 1778034497 | 19.44° C | 70% | 1012.2 hPa | 0 mm | - | 0 W/m² | - |
| 1778034195 | 19.44° C | 70% | 1012.5 hPa | 0 mm | - | 0 W/m² | - |
| 1778026921 | 24.44° C | 47% | 1011.9 hPa | 0 mm | - | 1 W/m² | - |
| 1778026616 | 24.44° C | 47% | 1011.8 hPa | 0 mm | - | 1 W/m² | - |
* Rain latest hour (hover to see other rain measurements)
** Current wind speed in m/s (hover to see current wind gust speed)